Terminal Aerodrome Forecast
Issued by NWS Sioux Falls, SD

Home | Current Version | Previous Version | Graphics & Text | Print | Product List | Glossary On
Versions: 1 2 3 4 5 6 7 8 9 10 11 12 13 14 15 16 17 18
000
FTUS43 KFSD 271936 AAA
TAFHON
TAF AMD
KHON 271936Z 2720/2818 33008KT P6SM SCT030 BKN060
     FM272300 36004KT P6SM SCT030 SCT100
     FM280600 VRB04KT P6SM BKN035
     FM281500 35005KT P6SM SHRA OVC030=

USA.gov is the U.S. government's official web portal to all federal, state and local government web resources and services.